createdAt,value
2023-03-22T00:02:33.476Z,3.25
2023-03-22T00:07:38.440Z,3.15
2023-03-22T00:12:41.653Z,3.03
2023-03-22T00:17:45.411Z,3.00
2023-03-22T00:22:50.380Z,2.53
2023-03-22T00:27:53.533Z,2.83
2023-03-22T00:32:57.362Z,2.85
2023-03-22T00:38:06.260Z,2.78
2023-03-22T00:43:09.472Z,2.97
2023-03-22T00:48:13.009Z,3.03
2023-03-22T00:53:17.498Z,3.10
2023-03-22T00:58:20.810Z,3.42
2023-03-22T01:03:24.702Z,3.13
2023-03-22T01:08:33.292Z,3.58
2023-03-22T01:13:37.551Z,3.83
2023-03-22T01:18:40.795Z,3.25
2023-03-22T01:23:46.256Z,3.80
2023-03-22T01:28:49.368Z,3.35
2023-03-22T01:33:52.495Z,3.90
2023-03-22T01:38:59.791Z,4.38
2023-03-22T01:44:10.196Z,4.68
2023-03-22T01:49:14.968Z,3.85
2023-03-22T01:54:21.919Z,4.70
2023-03-22T01:59:26.136Z,5.22
2023-03-22T02:04:43.027Z,4.75
2023-03-22T02:09:47.799Z,5.45
2023-03-22T02:14:59.506Z,5.88
2023-03-22T02:20:24.520Z,5.20
2023-03-22T02:25:34.809Z,7.50
2023-03-22T02:30:56.141Z,8.80
2023-03-22T02:41:08.181Z,8.82
2023-03-22T02:46:13.179Z,10.18
2023-03-22T02:51:20.188Z,11.73
2023-03-22T02:56:26.922Z,11.10
2023-03-22T03:01:30.823Z,11.18
2023-03-22T03:06:38.929Z,10.20
2023-03-22T03:11:43.933Z,11.57
2023-03-22T03:16:47.878Z,11.27
2023-03-22T03:21:55.883Z,10.50
2023-03-22T03:27:03.522Z,10.45
2023-03-22T03:32:08.933Z,9.88
2023-03-22T03:37:14.931Z,10.23
2023-03-22T03:42:19.557Z,9.07
2023-03-22T03:47:22.802Z,9.18
2023-03-22T03:52:26.439Z,8.57
2023-03-22T03:57:30.948Z,8.43
2023-03-22T04:02:34.224Z,8.65
2023-03-22T04:07:37.959Z,8.68
2023-03-22T04:12:42.580Z,7.63
2023-03-22T04:17:49.146Z,7.50
2023-03-22T04:22:53.737Z,6.55
2023-03-22T04:28:00.647Z,6.65
2023-03-22T04:33:08.916Z,6.00
2023-03-22T04:38:39.493Z,6.70
2023-03-22T04:43:47.277Z,5.28
2023-03-22T04:48:52.367Z,6.20
2023-03-22T04:53:55.921Z,5.32
2023-03-22T04:59:01.460Z,5.35
2023-03-22T05:04:04.767Z,4.90
2023-03-22T05:09:08.207Z,5.00
2023-03-22T05:14:13.165Z,5.20
2023-03-22T05:19:17.719Z,6.00
2023-03-22T05:24:24.393Z,5.07
2023-03-22T05:29:29.241Z,5.82
2023-03-22T05:34:45.654Z,5.10
2023-03-22T05:40:10.033Z,4.22
2023-03-22T05:45:19.247Z,4.68
2023-03-22T05:50:28.025Z,4.30
2023-03-22T05:55:32.191Z,4.22
2023-03-22T06:00:39.676Z,4.55
2023-03-22T06:06:00.940Z,4.22
2023-03-22T06:11:14.757Z,4.13
2023-03-22T06:16:19.536Z,4.35
2023-03-22T06:21:22.862Z,4.10
2023-03-22T06:26:26.304Z,3.95
2023-03-22T06:31:31.323Z,4.07
2023-03-22T06:41:48.000Z,3.42
2023-03-22T06:46:52.862Z,3.17
2023-03-22T06:52:08.270Z,3.42
2023-03-22T06:57:12.738Z,4.40
2023-03-22T07:02:17.260Z,4.03
2023-03-22T07:07:40.254Z,3.60
2023-03-22T07:12:43.547Z,3.10
2023-03-22T07:17:52.230Z,3.67
2023-03-22T07:22:56.322Z,3.47
2023-03-22T07:28:02.363Z,3.33
2023-03-22T07:33:10.475Z,3.80
2023-03-22T07:38:14.320Z,3.60
2023-03-22T07:43:17.903Z,4.28
2023-03-22T07:48:34.448Z,4.00
2023-03-22T07:54:04.824Z,3.65
2023-03-22T07:59:10.363Z,3.50
2023-03-22T08:04:14.998Z,3.60
2023-03-22T08:09:38.517Z,3.67
2023-03-22T08:14:41.971Z,3.25
2023-03-22T08:19:55.285Z,3.88
2023-03-22T08:25:04.902Z,4.93
2023-03-22T08:30:13.779Z,4.22
2023-03-22T08:35:20.375Z,3.47
2023-03-22T08:40:23.907Z,3.90
2023-03-22T08:45:31.018Z,3.83
2023-03-22T08:50:46.005Z,3.47
2023-03-22T08:56:02.187Z,3.90
2023-03-22T09:01:21.127Z,3.47
2023-03-22T09:06:30.806Z,3.92
2023-03-22T09:11:35.506Z,3.40
2023-03-22T09:16:38.875Z,2.90
2023-03-22T09:21:43.866Z,3.13
2023-03-22T09:26:54.113Z,2.53
2023-03-22T09:31:57.587Z,2.70
2023-03-22T09:37:08.357Z,2.45
2023-03-22T09:42:26.696Z,2.10
2023-03-22T09:47:44.244Z,2.10
2023-03-22T09:52:49.035Z,2.60
2023-03-22T09:57:56.898Z,2.30
2023-03-22T10:03:04.428Z,1.92
2023-03-22T10:08:19.969Z,2.40
2023-03-22T10:13:28.662Z,1.90
2023-03-22T10:18:34.221Z,1.90
2023-03-22T10:23:42.868Z,1.77
2023-03-22T10:28:48.860Z,2.42
2023-03-22T10:33:56.183Z,2.05
2023-03-22T10:39:02.244Z,2.10
2023-03-22T10:44:06.518Z,2.20
2023-03-22T10:49:14.345Z,2.78
2023-03-22T10:54:20.006Z,2.33
2023-03-22T10:59:41.688Z,2.38
2023-03-22T11:04:47.798Z,2.30
2023-03-22T11:09:58.731Z,2.35
2023-03-22T11:15:01.817Z,2.03
2023-03-22T11:20:07.856Z,2.40
2023-03-22T11:25:15.550Z,2.90
2023-03-22T11:30:21.188Z,2.67
2023-03-22T11:35:25.642Z,2.60
2023-03-22T11:40:31.438Z,2.30
2023-03-22T11:45:37.056Z,2.20
2023-03-22T11:50:43.430Z,1.85
2023-03-22T11:55:49.158Z,2.05
2023-03-22T12:00:53.281Z,2.40
2023-03-22T12:05:57.193Z,1.75
2023-03-22T12:11:06.153Z,2.10
2023-03-22T12:16:11.690Z,1.95
2023-03-22T12:21:15.726Z,2.30
2023-03-22T12:26:22.678Z,2.20
2023-03-22T12:31:27.789Z,2.17
2023-03-22T12:36:36.046Z,2.20
2023-03-22T12:41:41.586Z,2.00
2023-03-22T12:46:48.128Z,2.10
2023-03-22T12:51:53.068Z,2.40
2023-03-22T12:56:57.597Z,2.08
2023-03-22T13:02:02.145Z,2.03
2023-03-22T13:07:15.264Z,2.20
2023-03-22T13:12:33.983Z,2.05
2023-03-22T13:17:42.129Z,1.98
2023-03-22T13:23:12.270Z,1.70
2023-03-22T13:28:26.285Z,1.83
2023-03-22T13:33:30.600Z,2.25
2023-03-22T13:38:34.929Z,2.28
2023-03-22T13:43:46.803Z,2.75
2023-03-22T13:48:54.989Z,1.90
2023-03-22T13:54:00.413Z,2.85
2023-03-22T13:59:05.175Z,2.17
2023-03-22T14:04:10.692Z,1.88
2023-03-22T14:09:15.661Z,2.10
2023-03-22T14:14:21.796Z,1.88
2023-03-22T14:19:26.079Z,2.25
